Hrossey — VSTY6 — position and weather

sailwx.info

Track history (hours):
 
Tides and Currents Weather Stations Pressure Air Temp Water Temp Dewpoint Dewpoint Depression Visibility Wind Speed Wind Dir Waves Ship Positions

Hrossey

Operator: NorthLink Orkey & Shetland Ferries Ltd

Last reported at 2017-Jun-26 10:31 UTC. Time now 2017-Jun-26 10:34 UTC.
Position N 57°09' W 002°05'.

Length 125 m; draft 5.4 m.

Type: Passenger vessel. MMSI: 235448000.

Date/timePositionNaut miles runAvg speedWind from/ knotsBaromVisibWave heightAir tempDewpointWater temp
2017-Jun-26 10:31N 57°09' W 002°05'0 0.0
2017-Jun-26 10:01N 57°09' W 002°05'0 0.0
2017-Jun-26 09:30N 57°09' W 002°05'0 0.0
2017-Jun-26 09:00N 57°09' W 002°05'0 0.0
2017-Jun-26 08:30N 57°09' W 002°05'0 0.0
2017-Jun-26 08:01N 57°09' W 002°05'0 0.0
2017-Jun-26 07:30N 57°09' W 002°05'0 0.0
2017-Jun-26 07:01N 57°09' W 002°05'0 0.0
2017-Jun-26 06:30N 57°09' W 002°05'0 0.0
2017-Jun-26 06:00N 57°09' W 002°05'1 1.4
2017-Jun-26 05:30N 57°08' W 002°04'714.1
2017-Jun-26 05:00N 57°14' W 001°55'812.2
2017-Jun-26 04:22N 57°20' W 001°47'715.9
2017-Jun-26 03:55N 57°27' W 001°41'101 3.7
2017-Jun-25 00:24N 59°05' W 002°28'511.7
2017-Jun-25 00:00N 59°01' W 002°32'612.3
2017-Jun-24 23:31N 59°00' W 002°44'714.2
2017-Jun-24 23:00N 59°00' W 002°58'0 0.8
2017-Jun-24 22:30N 58°60' W 002°58'0 0.3
2017-Jun-24 21:56N 58°60' W 002°58'613.8
2017-Jun-24 21:30N 59°00' W 002°47'917.0
2017-Jun-24 21:00N 58°54' W 002°35'8221.6
2017-Jun-24 17:13N 57°37' W 001°45'525.3
2017-Jun-24 17:00N 57°31' W 001°43'1224.0
2017-Jun-24 16:29N 57°20' W 001°50'1123.7
2017-Jun-24 16:00N 57°10' W 002°01'2 5.0
2017-Jun-24 15:30N 57°09' W 002°05'0 0.0
2017-Jun-24 15:00N 57°09' W 002°05'0 0.0
2017-Jun-24 14:00N 57°09' W 002°05'0 0.0
2017-Jun-24 13:30N 57°09' W 002°05'0 0.0
2017-Jun-24 13:00N 57°09' W 002°05'0 0.0
2017-Jun-24 12:30N 57°09' W 002°05'0 0.0
2017-Jun-24 12:01N 57°09' W 002°05'0 0.0
2017-Jun-24 11:30N 57°09' W 002°05'0 0.0
2017-Jun-24 11:00N 57°09' W 002°05'0 0.0
2017-Jun-24 10:31N 57°09' W 002°05'0 0.0
2017-Jun-24 10:01N 57°09' W 002°05'0 0.0
2017-Jun-24 09:30N 57°09' W 002°05'0 0.0
2017-Jun-24 09:00N 57°09' W 002°05'0 0.0
2017-Jun-24 08:30N 57°09' W 002°05'0 0.0
2017-Jun-24 08:00N 57°09' W 002°05'0 0.0
2017-Jun-24 07:30N 57°09' W 002°05'0 0.0
2017-Jun-24 07:01N 57°09' W 002°05'0 0.0
2017-Jun-24 06:31N 57°09' W 002°05'0 0.0
2017-Jun-24 06:01N 57°09' W 002°05'1 1.4
2017-Jun-24 05:30N 57°08' W 002°04'713.0
2017-Jun-24 05:00N 57°13' W 001°56'1015.6
2017-Jun-24 04:23N 57°21' W 001°46'514.8
2017-Jun-24 04:00N 57°27' W 001°43'9520.4
2017-Jun-23 23:22N 58°57' W 002°37'719.5
2017-Jun-23 23:00N 59°00' W 002°48'510.4
2017-Jun-23 22:31N 58°60' W 002°58'0 0.0
2017-Jun-23 22:00N 58°60' W 002°58'0 0.0
2017-Jun-23 21:30N 58°60' W 002°58'0 0.8
2017-Jun-23 21:00N 59°00' W 002°58'917.0
2017-Jun-23 20:30N 59°00' W 002°41'8 0.4
2017-Jun-23 00:42N 59°04' W 002°28'316.8
2017-Jun-23 00:30N 59°01' W 002°32'815.5
2017-Jun-23 00:00N 59°01' W 002°47'611.6
2017-Jun-22 23:30N 58°60' W 002°58'0 0.0
2017-Jun-22 23:01N 58°60' W 002°58'0 0.0
2017-Jun-22 22:30N 58°60' W 002°58'0 0.0
2017-Jun-22 22:00N 58°60' W 002°58'2 4.0
2017-Jun-22 21:29N 59°01' W 002°55'1020.6
2017-Jun-22 21:00N 58°57' W 002°38'8423.2
2017-Jun-22 17:23N 57°38' W 001°45'925.4
2017-Jun-22 17:01N 57°28' W 001°42'1325.0
2017-Jun-22 16:30N 57°17' W 001°52'1121.2
2017-Jun-22 16:00N 57°09' W 002°04'1 1.6
2017-Jun-22 15:30N 57°09' W 002°05'0 0.0
2017-Jun-22 15:01N 57°09' W 002°05'0 0.0
2017-Jun-22 14:31N 57°09' W 002°05'0 0.0
2017-Jun-22 13:30N 57°09' W 002°05'0 0.0
2017-Jun-22 13:00N 57°09' W 002°05'0 0.0
2017-Jun-22 12:30N 57°09' W 002°05'0 0.0
2017-Jun-22 12:01N 57°09' W 002°05'0 0.0
2017-Jun-22 11:30N 57°09' W 002°05'0 0.0
2017-Jun-22 11:00N 57°09' W 002°05'0 0.0
2017-Jun-22 10:31N 57°09' W 002°05'0 0.0
2017-Jun-22 10:00N 57°09' W 002°05'0 0.0
2017-Jun-22 09:31N 57°09' W 002°05'0 0.0
2017-Jun-22 09:01N 57°09' W 002°05'0 0.0
2017-Jun-22 08:30N 57°09' W 002°05'0 0.0
2017-Jun-22 08:01N 57°09' W 002°05'0 0.0
2017-Jun-22 07:30N 57°09' W 002°05'0 0.0
2017-Jun-22 07:00N 57°09' W 002°05'0 0.0
2017-Jun-22 06:31N 57°09' W 002°05'0 0.0
2017-Jun-22 06:01N 57°09' W 002°05'1 1.2
2017-Jun-22 05:31N 57°08' W 002°04'917.6
2017-Jun-22 05:00N 57°15' W 001°54'1221.9
2017-Jun-22 04:28N 57°26' W 001°45'9622.5
2017-Jun-22 00:11N 58°58' W 002°37'421.4
2017-Jun-22 00:00N 58°60' W 002°44'814.9
2017-Jun-21 23:30N 58°60' W 002°58'0 0.0
2017-Jun-21 23:00N 58°60' W 002°58'0 0.0
2017-Jun-21 22:27N 58°60' W 002°58'0 0.0
2017-Jun-21 22:00N 58°60' W 002°58'0 0.0
2017-Jun-21 21:31N 58°60' W 002°58'510.3
2017-Jun-21 21:00N 59°01' W 002°48'11 0.5
2017-Jun-21 00:46N 59°04' W 002°28'313.8
2017-Jun-21 00:31N 59°01' W 002°32'612.1
2017-Jun-21 00:00N 59°01' W 002°44'613.0
2017-Jun-20 23:31N 59°01' W 002°57'2 3.4
2017-Jun-20 23:00N 58°60' W 002°58'0 0.0
2017-Jun-20 22:30N 58°60' W 002°58'0 0.0
2017-Jun-20 22:01N 58°60' W 002°58'4 7.9
2017-Jun-20 21:30N 59°01' W 002°51'9222.4
2017-Jun-20 17:23N 57°35' W 001°43'923.5
2017-Jun-20 17:00N 57°27' W 001°42'1223.3
2017-Jun-20 16:31N 57°16' W 001°52'1020.2
2017-Jun-20 16:01N 57°09' W 002°04'1 1.5
2017-Jun-20 15:31N 57°09' W 002°05'0 0.0
2017-Jun-20 15:00N 57°09' W 002°05'0 0.0
2017-Jun-20 14:00N 57°09' W 002°05'0 0.0
2017-Jun-20 13:30N 57°09' W 002°05'0 0.0
2017-Jun-20 13:00N 57°09' W 002°05'0 0.0
2017-Jun-20 12:31N 57°09' W 002°05'0 0.0
2017-Jun-20 12:01N 57°09' W 002°05'0 0.0
2017-Jun-20 11:30N 57°09' W 002°05'0 0.0
2017-Jun-20 11:01N 57°09' W 002°05'0 0.0
2017-Jun-20 10:30N 57°09' W 002°05'0 0.0
2017-Jun-20 10:01N 57°09' W 002°05'0 0.0
2017-Jun-20 09:30N 57°09' W 002°05'0 0.0
2017-Jun-20 09:00N 57°09' W 002°05'0 0.0
2017-Jun-20 08:31N 57°09' W 002°05'0 0.0
2017-Jun-20 08:01N 57°09' W 002°05'0 0.0
2017-Jun-20 07:31N 57°09' W 002°05'0 0.0
2017-Jun-20 07:01N 57°09' W 002°05'0 0.0
2017-Jun-20 06:30N 57°09' W 002°05'0 0.0
2017-Jun-20 06:00N 57°09' W 002°05'1 1.2
2017-Jun-20 05:31N 57°08' W 002°04'713.2
2017-Jun-20 05:00N 57°13' W 001°56'1317.0
2017-Jun-20 04:14N 57°25' W 001°45'416.6
2017-Jun-20 04:00N 57°28' W 001°43'9419.9
2017-Jun-19 23:19N 58°57' W 002°38'618.0
2017-Jun-19 23:00N 59°00' W 002°47'611.2
2017-Jun-19 22:30N 58°60' W 002°58'0 0.0
2017-Jun-19 22:00N 58°60' W 002°58'0 0.1
2017-Jun-19 21:30N 58°60' W 002°58'714.4
2017-Jun-19 21:00N 59°00' W 002°45'9 0.4
2017-Jun-19 00:13N 59°04' W 002°28'313.9
2017-Jun-19 00:00N 59°02' W 002°31'612.2
2017-Jun-18 23:30N 59°00' W 002°43'713.5
2017-Jun-18 23:00N 59°01' W 002°56'2 3.7
2017-Jun-18 22:30N 58°60' W 002°58'0 0.0
2017-Jun-18 22:00N 58°60' W 002°58'510.3
2017-Jun-18 21:30N 59°00' W 002°49'10421.9
2017-Jun-18 16:45N 57°22' W 001°46'622.5
2017-Jun-18 16:30N 57°17' W 001°50'1121.3
2017-Jun-18 16:00N 57°09' W 002°03'1 2.1
2017-Jun-18 15:30N 57°09' W 002°05'0 0.0
2017-Jun-18 15:00N 57°09' W 002°05'0 0.0
2017-Jun-18 14:00N 57°09' W 002°05'0 0.0
2017-Jun-18 13:30N 57°09' W 002°05'0 0.0
2017-Jun-18 13:00N 57°09' W 002°05'0 0.0
2017-Jun-18 12:30N 57°09' W 002°05'0 0.0
2017-Jun-18 12:01N 57°09' W 002°05'0 0.0
2017-Jun-18 11:31N 57°09' W 002°05'0 0.0
2017-Jun-18 11:00N 57°09' W 002°05'0 0.0
2017-Jun-18 10:30N 57°09' W 002°05'0 0.0
2017-Jun-18 10:00N 57°09' W 002°05'0 0.0
2017-Jun-18 09:30N 57°09' W 002°05'0 0.0
2017-Jun-18 09:00N 57°09' W 002°05'0 0.0
2017-Jun-18 08:30N 57°09' W 002°05'0 0.0
2017-Jun-18 08:00N 57°09' W 002°05'0 0.0
2017-Jun-18 07:30N 57°09' W 002°05'0 0.0
2017-Jun-18 07:00N 57°09' W 002°05'0 0.0
2017-Jun-18 06:30N 57°09' W 002°05'0 0.0
2017-Jun-18 06:00N 57°09' W 002°05'1 1.3
2017-Jun-18 05:30N 57°08' W 002°04'713.5
2017-Jun-18 05:00N 57°13' W 001°55'24 0.7
2017-Jun-16 20:04N 57°35' W 001°37'115.0
2017-Jun-16 20:00N 57°34' W 001°37'714.7
2017-Jun-16 19:30N 57°27' W 001°39'1114.8
2017-Jun-16 18:45N 57°18' W 001°51'414.8
2017-Jun-16 18:30N 57°15' W 001°55'815.1
2017-Jun-16 18:00N 57°09' W 002°03'1 2.1
2017-Jun-16 17:30N 57°09' W 002°05'0 0.0
2017-Jun-16 17:01N 57°09' W 002°05'0 0.0
2017-Jun-16 16:30N 57°09' W 002°05'0 0.0
2017-Jun-16 16:00N 57°09' W 002°05'0 0.0
2017-Jun-16 15:30N 57°09' W 002°05'0 0.0
2017-Jun-16 15:01N 57°09' W 002°05'0 0.0
2017-Jun-16 14:30N 57°09' W 002°05'0 0.0
2017-Jun-16 13:30N 57°09' W 002°05'0 0.0
2017-Jun-16 13:01N 57°09' W 002°05'0 0.0
2017-Jun-16 12:30N 57°09' W 002°05'0 0.0
2017-Jun-16 12:00N 57°09' W 002°05'0 0.0
2017-Jun-16 11:31N 57°09' W 002°05'0 0.0
2017-Jun-16 11:01N 57°09' W 002°05'0 0.0
2017-Jun-16 10:31N 57°09' W 002°05'  
Track history (hours):
 
Tides and Currents Weather Stations Pressure Air Temp Water Temp Dewpoint Dewpoint Depression Visibility Wind Speed Wind Dir Waves Ship Positions

Hrossey

Operator: NorthLink Orkey & Shetland Ferries Ltd

Last reported at 2017-Jun-26 10:31 UTC. Time now 2017-Jun-26 10:34 UTC.
Position N 57°09' W 002°05'.

Length 125 m; draft 5.4 m.

Type: Passenger vessel. MMSI: 235448000.

Date/timePositionNaut miles runAvg speedWind from/ knotsBaromVisibWave heightAir tempDewpointWater temp
2017-Jun-26 10:31N 57°09' W 002°05'0 0.0
2017-Jun-26 10:01N 57°09' W 002°05'0 0.0
2017-Jun-26 09:30N 57°09' W 002°05'0 0.0
2017-Jun-26 09:00N 57°09' W 002°05'0 0.0
2017-Jun-26 08:30N 57°09' W 002°05'0 0.0
2017-Jun-26 08:01N 57°09' W 002°05'0 0.0
2017-Jun-26 07:30N 57°09' W 002°05'0 0.0
2017-Jun-26 07:01N 57°09' W 002°05'0 0.0
2017-Jun-26 06:30N 57°09' W 002°05'0 0.0
2017-Jun-26 06:00N 57°09' W 002°05'1 1.4
2017-Jun-26 05:30N 57°08' W 002°04'714.1
2017-Jun-26 05:00N 57°14' W 001°55'812.2
2017-Jun-26 04:22N 57°20' W 001°47'715.9
2017-Jun-26 03:55N 57°27' W 001°41'101 3.7
2017-Jun-25 00:24N 59°05' W 002°28'511.7
2017-Jun-25 00:00N 59°01' W 002°32'612.3
2017-Jun-24 23:31N 59°00' W 002°44'714.2
2017-Jun-24 23:00N 59°00' W 002°58'0 0.8
2017-Jun-24 22:30N 58°60' W 002°58'0 0.3
2017-Jun-24 21:56N 58°60' W 002°58'613.8
2017-Jun-24 21:30N 59°00' W 002°47'917.0
2017-Jun-24 21:00N 58°54' W 002°35'8221.6
2017-Jun-24 17:13N 57°37' W 001°45'525.3
2017-Jun-24 17:00N 57°31' W 001°43'1224.0
2017-Jun-24 16:29N 57°20' W 001°50'1123.7
2017-Jun-24 16:00N 57°10' W 002°01'2 5.0
2017-Jun-24 15:30N 57°09' W 002°05'0 0.0
2017-Jun-24 15:00N 57°09' W 002°05'0 0.0
2017-Jun-24 14:00N 57°09' W 002°05'0 0.0
2017-Jun-24 13:30N 57°09' W 002°05'0 0.0
2017-Jun-24 13:00N 57°09' W 002°05'0 0.0
2017-Jun-24 12:30N 57°09' W 002°05'0 0.0
2017-Jun-24 12:01N 57°09' W 002°05'0 0.0
2017-Jun-24 11:30N 57°09' W 002°05'0 0.0
2017-Jun-24 11:00N 57°09' W 002°05'0 0.0
2017-Jun-24 10:31N 57°09' W 002°05'0 0.0
2017-Jun-24 10:01N 57°09' W 002°05'0 0.0
2017-Jun-24 09:30N 57°09' W 002°05'0 0.0
2017-Jun-24 09:00N 57°09' W 002°05'0 0.0
2017-Jun-24 08:30N 57°09' W 002°05'0 0.0
2017-Jun-24 08:00N 57°09' W 002°05'0 0.0
2017-Jun-24 07:30N 57°09' W 002°05'0 0.0
2017-Jun-24 07:01N 57°09' W 002°05'0 0.0
2017-Jun-24 06:31N 57°09' W 002°05'0 0.0
2017-Jun-24 06:01N 57°09' W 002°05'1 1.4
2017-Jun-24 05:30N 57°08' W 002°04'713.0
2017-Jun-24 05:00N 57°13' W 001°56'1015.6
2017-Jun-24 04:23N 57°21' W 001°46'514.8
2017-Jun-24 04:00N 57°27' W 001°43'9520.4
2017-Jun-23 23:22N 58°57' W 002°37'719.5
2017-Jun-23 23:00N 59°00' W 002°48'510.4
2017-Jun-23 22:31N 58°60' W 002°58'0 0.0
2017-Jun-23 22:00N 58°60' W 002°58'0 0.0
2017-Jun-23 21:30N 58°60' W 002°58'0 0.8
2017-Jun-23 21:00N 59°00' W 002°58'917.0
2017-Jun-23 20:30N 59°00' W 002°41'8 0.4
2017-Jun-23 00:42N 59°04' W 002°28'316.8
2017-Jun-23 00:30N 59°01' W 002°32'815.5
2017-Jun-23 00:00N 59°01' W 002°47'611.6
2017-Jun-22 23:30N 58°60' W 002°58'0 0.0
2017-Jun-22 23:01N 58°60' W 002°58'0 0.0
2017-Jun-22 22:30N 58°60' W 002°58'0 0.0
2017-Jun-22 22:00N 58°60' W 002°58'2 4.0
2017-Jun-22 21:29N 59°01' W 002°55'1020.6
2017-Jun-22 21:00N 58°57' W 002°38'8423.2
2017-Jun-22 17:23N 57°38' W 001°45'925.4
2017-Jun-22 17:01N 57°28' W 001°42'1325.0
2017-Jun-22 16:30N 57°17' W 001°52'1121.2
2017-Jun-22 16:00N 57°09' W 002°04'1 1.6
2017-Jun-22 15:30N 57°09' W 002°05'0 0.0
2017-Jun-22 15:01N 57°09' W 002°05'0 0.0
2017-Jun-22 14:31N 57°09' W 002°05'0 0.0
2017-Jun-22 13:30N 57°09' W 002°05'0 0.0
2017-Jun-22 13:00N 57°09' W 002°05'0 0.0
2017-Jun-22 12:30N 57°09' W 002°05'0 0.0
2017-Jun-22 12:01N 57°09' W 002°05'0 0.0
2017-Jun-22 11:30N 57°09' W 002°05'0 0.0
2017-Jun-22 11:00N 57°09' W 002°05'0 0.0
2017-Jun-22 10:31N 57°09' W 002°05'0 0.0
2017-Jun-22 10:00N 57°09' W 002°05'0 0.0
2017-Jun-22 09:31N 57°09' W 002°05'0 0.0
2017-Jun-22 09:01N 57°09' W 002°05'0 0.0
2017-Jun-22 08:30N 57°09' W 002°05'0 0.0
2017-Jun-22 08:01N 57°09' W 002°05'0 0.0
2017-Jun-22 07:30N 57°09' W 002°05'0 0.0
2017-Jun-22 07:00N 57°09' W 002°05'0 0.0
2017-Jun-22 06:31N 57°09' W 002°05'0 0.0
2017-Jun-22 06:01N 57°09' W 002°05'1 1.2
2017-Jun-22 05:31N 57°08' W 002°04'917.6
2017-Jun-22 05:00N 57°15' W 001°54'1221.9
2017-Jun-22 04:28N 57°26' W 001°45'9622.5
2017-Jun-22 00:11N 58°58' W 002°37'421.4
2017-Jun-22 00:00N 58°60' W 002°44'814.9
2017-Jun-21 23:30N 58°60' W 002°58'0 0.0
2017-Jun-21 23:00N 58°60' W 002°58'0 0.0
2017-Jun-21 22:27N 58°60' W 002°58'0 0.0
2017-Jun-21 22:00N 58°60' W 002°58'0 0.0
2017-Jun-21 21:31N 58°60' W 002°58'510.3
2017-Jun-21 21:00N 59°01' W 002°48'11 0.5
2017-Jun-21 00:46N 59°04' W 002°28'313.8
2017-Jun-21 00:31N 59°01' W 002°32'612.1
2017-Jun-21 00:00N 59°01' W 002°44'613.0
2017-Jun-20 23:31N 59°01' W 002°57'2 3.4
2017-Jun-20 23:00N 58°60' W 002°58'0 0.0
2017-Jun-20 22:30N 58°60' W 002°58'0 0.0
2017-Jun-20 22:01N 58°60' W 002°58'4 7.9
2017-Jun-20 21:30N 59°01' W 002°51'9222.4
2017-Jun-20 17:23N 57°35' W 001°43'923.5
2017-Jun-20 17:00N 57°27' W 001°42'1223.3
2017-Jun-20 16:31N 57°16' W 001°52'1020.2
2017-Jun-20 16:01N 57°09' W 002°04'1 1.5
2017-Jun-20 15:31N 57°09' W 002°05'0 0.0
2017-Jun-20 15:00N 57°09' W 002°05'0 0.0
2017-Jun-20 14:00N 57°09' W 002°05'0 0.0
2017-Jun-20 13:30N 57°09' W 002°05'0 0.0
2017-Jun-20 13:00N 57°09' W 002°05'0 0.0
2017-Jun-20 12:31N 57°09' W 002°05'0 0.0
2017-Jun-20 12:01N 57°09' W 002°05'0 0.0
2017-Jun-20 11:30N 57°09' W 002°05'0 0.0
2017-Jun-20 11:01N 57°09' W 002°05'0 0.0
2017-Jun-20 10:30N 57°09' W 002°05'0 0.0
2017-Jun-20 10:01N 57°09' W 002°05'0 0.0
2017-Jun-20 09:30N 57°09' W 002°05'0 0.0
2017-Jun-20 09:00N 57°09' W 002°05'0 0.0
2017-Jun-20 08:31N 57°09' W 002°05'0 0.0
2017-Jun-20 08:01N 57°09' W 002°05'0 0.0
2017-Jun-20 07:31N 57°09' W 002°05'0 0.0
2017-Jun-20 07:01N 57°09' W 002°05'0 0.0
2017-Jun-20 06:30N 57°09' W 002°05'0 0.0
2017-Jun-20 06:00N 57°09' W 002°05'1 1.2
2017-Jun-20 05:31N 57°08' W 002°04'713.2
2017-Jun-20 05:00N 57°13' W 001°56'1317.0
2017-Jun-20 04:14N 57°25' W 001°45'416.6
2017-Jun-20 04:00N 57°28' W 001°43'9419.9
2017-Jun-19 23:19N 58°57' W 002°38'618.0
2017-Jun-19 23:00N 59°00' W 002°47'611.2
2017-Jun-19 22:30N 58°60' W 002°58'0 0.0
2017-Jun-19 22:00N 58°60' W 002°58'0 0.1
2017-Jun-19 21:30N 58°60' W 002°58'714.4
2017-Jun-19 21:00N 59°00' W 002°45'9 0.4
2017-Jun-19 00:13N 59°04' W 002°28'313.9
2017-Jun-19 00:00N 59°02' W 002°31'612.2
2017-Jun-18 23:30N 59°00' W 002°43'713.5
2017-Jun-18 23:00N 59°01' W 002°56'2 3.7
2017-Jun-18 22:30N 58°60' W 002°58'0 0.0
2017-Jun-18 22:00N 58°60' W 002°58'510.3
2017-Jun-18 21:30N 59°00' W 002°49'10421.9
2017-Jun-18 16:45N 57°22' W 001°46'622.5
2017-Jun-18 16:30N 57°17' W 001°50'1121.3
2017-Jun-18 16:00N 57°09' W 002°03'1 2.1
2017-Jun-18 15:30N 57°09' W 002°05'0 0.0
2017-Jun-18 15:00N 57°09' W 002°05'0 0.0
2017-Jun-18 14:00N 57°09' W 002°05'0 0.0
2017-Jun-18 13:30N 57°09' W 002°05'0 0.0
2017-Jun-18 13:00N 57°09' W 002°05'0 0.0
2017-Jun-18 12:30N 57°09' W 002°05'0 0.0
2017-Jun-18 12:01N 57°09' W 002°05'0 0.0
2017-Jun-18 11:31N 57°09' W 002°05'0 0.0
2017-Jun-18 11:00N 57°09' W 002°05'0 0.0
2017-Jun-18 10:30N 57°09' W 002°05'0 0.0
2017-Jun-18 10:00N 57°09' W 002°05'0 0.0
2017-Jun-18 09:30N 57°09' W 002°05'0 0.0
2017-Jun-18 09:00N 57°09' W 002°05'0 0.0
2017-Jun-18 08:30N 57°09' W 002°05'0 0.0
2017-Jun-18 08:00N 57°09' W 002°05'0 0.0
2017-Jun-18 07:30N 57°09' W 002°05'0 0.0
2017-Jun-18 07:00N 57°09' W 002°05'0 0.0
2017-Jun-18 06:30N 57°09' W 002°05'0 0.0
2017-Jun-18 06:00N 57°09' W 002°05'1 1.3
2017-Jun-18 05:30N 57°08' W 002°04'713.5
2017-Jun-18 05:00N 57°13' W 001°55'24 0.7
2017-Jun-16 20:04N 57°35' W 001°37'115.0
2017-Jun-16 20:00N 57°34' W 001°37'714.7
2017-Jun-16 19:30N 57°27' W 001°39'1114.8
2017-Jun-16 18:45N 57°18' W 001°51'414.8
2017-Jun-16 18:30N 57°15' W 001°55'815.1
2017-Jun-16 18:00N 57°09' W 002°03'1 2.1
2017-Jun-16 17:30N 57°09' W 002°05'0 0.0
2017-Jun-16 17:01N 57°09' W 002°05'0 0.0
2017-Jun-16 16:30N 57°09' W 002°05'0 0.0
2017-Jun-16 16:00N 57°09' W 002°05'0 0.0
2017-Jun-16 15:30N 57°09' W 002°05'0 0.0
2017-Jun-16 15:01N 57°09' W 002°05'0 0.0
2017-Jun-16 14:30N 57°09' W 002°05'0 0.0
2017-Jun-16 13:30N 57°09' W 002°05'0 0.0
2017-Jun-16 13:01N 57°09' W 002°05'0 0.0
2017-Jun-16 12:30N 57°09' W 002°05'0 0.0
2017-Jun-16 12:00N 57°09' W 002°05'0 0.0
2017-Jun-16 11:31N 57°09' W 002°05'0 0.0
2017-Jun-16 11:01N 57°09' W 002°05'0 0.0
2017-Jun-16 10:31N 57°09' W 002°05'  

Dump ship's entire track history